sensor_id;sensor_type;location;lat;lon;timestamp;P1;durP1;ratioP1;P2;durP2;ratioP2
30068;SDS011;16894;49.456;10.644;2023-07-22T00:00:44;126.10;;;118.30;;
30068;SDS011;16894;49.456;10.644;2023-07-22T00:03:10;133.43;;;125.30;;
30068;SDS011;16894;49.456;10.644;2023-07-22T00:05:36;130.02;;;122.10;;
30068;SDS011;16894;49.456;10.644;2023-07-22T00:08:02;146.70;;;137.83;;
30068;SDS011;16894;49.456;10.644;2023-07-22T00:10:28;148.93;;;140.10;;
30068;SDS011;16894;49.456;10.644;2023-07-22T00:12:54;149.80;;;140.57;;
30068;SDS011;16894;49.456;10.644;2023-07-22T00:15:19;164.43;;;154.60;;
30068;SDS011;16894;49.456;10.644;2023-07-22T00:17:48;148.75;;;139.73;;
30068;SDS011;16894;49.456;10.644;2023-07-22T00:20:15;144.90;;;136.15;;
30068;SDS011;16894;49.456;10.644;2023-07-22T00:22:41;147.90;;;138.98;;
30068;SDS011;16894;49.456;10.644;2023-07-22T00:25:09;148.15;;;139.27;;
30068;SDS011;16894;49.456;10.644;2023-07-22T00:27:39;136.30;;;128.23;;
30068;SDS011;16894;49.456;10.644;2023-07-22T00:30:08;133.98;;;125.80;;
30068;SDS011;16894;49.456;10.644;2023-07-22T00:32:34;140.32;;;131.95;;
30068;SDS011;16894;49.456;10.644;2023-07-22T00:35:06;138.07;;;129.88;;
30068;SDS011;16894;49.456;10.644;2023-07-22T00:37:32;146.77;;;138.02;;
30068;SDS011;16894;49.456;10.644;2023-07-22T00:39:58;155.00;;;145.45;;
30068;SDS011;16894;49.456;10.644;2023-07-22T00:42:24;167.07;;;156.27;;
30068;SDS011;16894;49.456;10.644;2023-07-22T00:44:50;183.10;;;172.18;;
30068;SDS011;16894;49.456;10.644;2023-07-22T00:47:15;183.60;;;172.47;;
30068;SDS011;16894;49.456;10.644;2023-07-22T00:49:42;190.95;;;179.48;;
30068;SDS011;16894;49.456;10.644;2023-07-22T00:52:10;175.93;;;165.48;;
30068;SDS011;16894;49.456;10.644;2023-07-22T00:54:35;192.07;;;180.33;;
30068;SDS011;16894;49.456;10.644;2023-07-22T00:57:01;187.70;;;176.50;;
30068;SDS011;16894;49.456;10.644;2023-07-22T00:59:27;173.73;;;163.27;;
30068;SDS011;16894;49.456;10.644;2023-07-22T01:01:58;166.25;;;156.25;;
30068;SDS011;16894;49.456;10.644;2023-07-22T01:04:24;160.52;;;150.82;;
30068;SDS011;16894;49.456;10.644;2023-07-22T01:06:50;161.48;;;151.68;;
30068;SDS011;16894;49.456;10.644;2023-07-22T01:09:19;144.68;;;136.02;;
30068;SDS011;16894;49.456;10.644;2023-07-22T01:11:45;159.23;;;149.40;;
30068;SDS011;16894;49.456;10.644;2023-07-22T01:14:11;151.30;;;142.03;;
30068;SDS011;16894;49.456;10.644;2023-07-22T01:16:36;162.27;;;152.57;;
30068;SDS011;16894;49.456;10.644;2023-07-22T01:19:02;155.57;;;146.05;;
30068;SDS011;16894;49.456;10.644;2023-07-22T01:21:29;148.35;;;139.27;;
30068;SDS011;16894;49.456;10.644;2023-07-22T01:23:57;160.05;;;150.35;;
30068;SDS011;16894;49.456;10.644;2023-07-22T01:26:23;163.13;;;152.02;;
30068;SDS011;16894;49.456;10.644;2023-07-22T01:28:49;177.95;;;167.15;;
30068;SDS011;16894;49.456;10.644;2023-07-22T01:31:14;183.30;;;172.37;;
30068;SDS011;16894;49.456;10.644;2023-07-22T01:33:40;180.73;;;169.80;;
30068;SDS011;16894;49.456;10.644;2023-07-22T01:36:06;195.87;;;183.97;;
30068;SDS011;16894;49.456;10.644;2023-07-22T01:38:32;172.85;;;162.43;;
30068;SDS011;16894;49.456;10.644;2023-07-22T01:40:58;180.90;;;170.13;;
30068;SDS011;16894;49.456;10.644;2023-07-22T01:43:24;204.53;;;191.87;;
30068;SDS011;16894;49.456;10.644;2023-07-22T01:45:50;202.83;;;190.67;;
30068;SDS011;16894;49.456;10.644;2023-07-22T01:48:15;218.53;;;205.10;;
30068;SDS011;16894;49.456;10.644;2023-07-22T01:50:41;228.07;;;213.80;;
30068;SDS011;16894;49.456;10.644;2023-07-22T01:53:07;229.30;;;215.33;;
30068;SDS011;16894;49.456;10.644;2023-07-22T01:55:32;223.77;;;210.60;;
30068;SDS011;16894;49.456;10.644;2023-07-22T01:57:58;203.52;;;191.43;;
30068;SDS011;16894;49.456;10.644;2023-07-22T02:00:24;231.20;;;217.17;;
30068;SDS011;16894;49.456;10.644;2023-07-22T02:02:50;230.40;;;216.48;;
30068;SDS011;16894;49.456;10.644;2023-07-22T02:05:16;231.57;;;217.70;;
30068;SDS011;16894;49.456;10.644;2023-07-22T02:07:42;239.30;;;224.57;;
30068;SDS011;16894;49.456;10.644;2023-07-22T02:10:07;259.00;;;243.33;;
30068;SDS011;16894;49.456;10.644;2023-07-22T02:12:35;248.27;;;233.25;;
30068;SDS011;16894;49.456;10.644;2023-07-22T02:15:00;251.32;;;236.23;;
30068;SDS011;16894;49.456;10.644;2023-07-22T02:17:27;245.27;;;230.32;;
30068;SDS011;16894;49.456;10.644;2023-07-22T02:19:53;248.35;;;233.48;;
30068;SDS011;16894;49.456;10.644;2023-07-22T02:24:45;234.18;;;219.73;;
30068;SDS011;16894;49.456;10.644;2023-07-22T02:27:12;240.75;;;226.35;;
30068;SDS011;16894;49.456;10.644;2023-07-22T02:29:37;238.27;;;223.97;;
30068;SDS011;16894;49.456;10.644;2023-07-22T02:32:03;235.10;;;220.73;;
30068;SDS011;16894;49.456;10.644;2023-07-22T02:34:29;231.40;;;217.18;;
30068;SDS011;16894;49.456;10.644;2023-07-22T02:36:55;233.33;;;219.40;;
30068;SDS011;16894;49.456;10.644;2023-07-22T02:39:20;229.03;;;215.33;;
30068;SDS011;16894;49.456;10.644;2023-07-22T02:41:47;223.40;;;210.00;;
30068;SDS011;16894;49.456;10.644;2023-07-22T02:44:13;220.52;;;206.98;;
30068;SDS011;16894;49.456;10.644;2023-07-22T02:46:39;225.53;;;211.87;;
30068;SDS011;16894;49.456;10.644;2023-07-22T02:49:06;222.88;;;209.32;;
30068;SDS011;16894;49.456;10.644;2023-07-22T02:51:32;233.77;;;218.43;;
30068;SDS011;16894;49.456;10.644;2023-07-22T02:53:57;226.43;;;213.00;;
30068;SDS011;16894;49.456;10.644;2023-07-22T02:56:23;221.10;;;207.80;;
30068;SDS011;16894;49.456;10.644;2023-07-22T02:58:49;223.90;;;210.53;;
30068;SDS011;16894;49.456;10.644;2023-07-22T03:01:15;221.90;;;208.63;;
30068;SDS011;16894;49.456;10.644;2023-07-22T03:03:40;223.87;;;209.20;;
30068;SDS011;16894;49.456;10.644;2023-07-22T03:06:06;220.50;;;206.40;;
30068;SDS011;16894;49.456;10.644;2023-07-22T03:08:35;230.55;;;216.77;;
30068;SDS011;16894;49.456;10.644;2023-07-22T03:11:01;226.57;;;212.93;;
30068;SDS011;16894;49.456;10.644;2023-07-22T03:13:27;243.50;;;228.68;;
30068;SDS011;16894;49.456;10.644;2023-07-22T03:15:56;250.40;;;235.13;;
30068;SDS011;16894;49.456;10.644;2023-07-22T03:18:22;264.90;;;248.38;;
30068;SDS011;16894;49.456;10.644;2023-07-22T03:20:48;302.73;;;284.37;;
30068;SDS011;16894;49.456;10.644;2023-07-22T03:23:14;296.25;;;278.25;;
30068;SDS011;16894;49.456;10.644;2023-07-22T03:25:39;293.30;;;275.33;;
30068;SDS011;16894;49.456;10.644;2023-07-22T03:28:06;265.95;;;249.77;;
30068;SDS011;16894;49.456;10.644;2023-07-22T03:30:32;256.83;;;241.45;;
30068;SDS011;16894;49.456;10.644;2023-07-22T03:32:58;264.98;;;248.50;;
30068;SDS011;16894;49.456;10.644;2023-07-22T03:35:24;261.10;;;245.40;;
30068;SDS011;16894;49.456;10.644;2023-07-22T03:37:49;260.87;;;245.20;;
30068;SDS011;16894;49.456;10.644;2023-07-22T03:40:15;274.93;;;257.80;;
30068;SDS011;16894;49.456;10.644;2023-07-22T03:42:53;293.25;;;275.50;;
30068;SDS011;16894;49.456;10.644;2023-07-22T03:45:20;292.33;;;274.58;;
30068;SDS011;16894;49.456;10.644;2023-07-22T03:47:49;296.75;;;278.75;;
30068;SDS011;16894;49.456;10.644;2023-07-22T03:50:16;276.42;;;259.77;;
30068;SDS011;16894;49.456;10.644;2023-07-22T03:52:42;254.25;;;238.90;;
30068;SDS011;16894;49.456;10.644;2023-07-22T03:55:08;232.70;;;218.63;;
30068;SDS011;16894;49.456;10.644;2023-07-22T03:57:34;224.80;;;211.27;;
30068;SDS011;16894;49.456;10.644;2023-07-22T04:00:00;222.48;;;208.95;;
30068;SDS011;16894;49.456;10.644;2023-07-22T04:02:26;215.65;;;202.68;;
30068;SDS011;16894;49.456;10.644;2023-07-22T04:04:53;215.25;;;202.25;;
30068;SDS011;16894;49.456;10.644;2023-07-22T04:07:19;263.98;;;247.95;;
30068;SDS011;16894;49.456;10.644;2023-07-22T04:09:45;217.52;;;204.60;;
30068;SDS011;16894;49.456;10.644;2023-07-22T04:12:11;220.70;;;207.52;;
30068;SDS011;16894;49.456;10.644;2023-07-22T04:14:37;217.50;;;204.57;;
30068;SDS011;16894;49.456;10.644;2023-07-22T04:17:03;220.70;;;207.63;;
30068;SDS011;16894;49.456;10.644;2023-07-22T04:19:29;214.90;;;202.02;;
30068;SDS011;16894;49.456;10.644;2023-07-22T04:21:55;223.40;;;210.10;;
30068;SDS011;16894;49.456;10.644;2023-07-22T04:24:21;211.13;;;198.53;;
30068;SDS011;16894;49.456;10.644;2023-07-22T04:26:47;205.07;;;192.82;;
30068;SDS011;16894;49.456;10.644;2023-07-22T04:29:12;175.20;;;164.40;;
30068;SDS011;16894;49.456;10.644;2023-07-22T04:31:38;156.10;;;146.83;;
30068;SDS011;16894;49.456;10.644;2023-07-22T04:34:04;155.75;;;146.45;;
30068;SDS011;16894;49.456;10.644;2023-07-22T04:36:30;167.40;;;157.48;;
30068;SDS011;16894;49.456;10.644;2023-07-22T04:38:56;169.93;;;159.77;;
30068;SDS011;16894;49.456;10.644;2023-07-22T04:41:22;155.80;;;146.20;;
30068;SDS011;16894;49.456;10.644;2023-07-22T04:43:48;159.68;;;149.70;;
30068;SDS011;16894;49.456;10.644;2023-07-22T04:46:16;164.63;;;154.75;;
30068;SDS011;16894;49.456;10.644;2023-07-22T04:48:42;160.93;;;151.35;;
30068;SDS011;16894;49.456;10.644;2023-07-22T04:51:07;163.00;;;152.90;;
30068;SDS011;16894;49.456;10.644;2023-07-22T04:53:33;160.60;;;151.13;;
30068;SDS011;16894;49.456;10.644;2023-07-22T04:55:59;161.90;;;152.30;;
30068;SDS011;16894;49.456;10.644;2023-07-22T04:58:24;171.63;;;161.43;;
30068;SDS011;16894;49.456;10.644;2023-07-22T05:00:50;172.40;;;162.10;;
30068;SDS011;16894;49.456;10.644;2023-07-22T05:03:16;180.07;;;169.35;;
30068;SDS011;16894;49.456;10.644;2023-07-22T05:05:43;180.48;;;169.73;;
30068;SDS011;16894;49.456;10.644;2023-07-22T05:08:09;194.63;;;182.90;;
30068;SDS011;16894;49.456;10.644;2023-07-22T05:10:36;200.88;;;188.75;;
30068;SDS011;16894;49.456;10.644;2023-07-22T05:13:03;225.85;;;212.38;;
30068;SDS011;16894;49.456;10.644;2023-07-22T05:15:29;257.42;;;242.02;;
30068;SDS011;16894;49.456;10.644;2023-07-22T05:17:54;249.20;;;234.27;;
30068;SDS011;16894;49.456;10.644;2023-07-22T05:20:20;231.13;;;217.03;;
30068;SDS011;16894;49.456;10.644;2023-07-22T05:22:45;224.60;;;211.10;;
30068;SDS011;16894;49.456;10.644;2023-07-22T05:25:13;224.40;;;211.10;;
30068;SDS011;16894;49.456;10.644;2023-07-22T05:27:39;211.37;;;198.73;;
30068;SDS011;16894;49.456;10.644;2023-07-22T05:30:05;200.25;;;188.40;;
30068;SDS011;16894;49.456;10.644;2023-07-22T05:32:31;218.63;;;205.45;;
30068;SDS011;16894;49.456;10.644;2023-07-22T05:34:57;204.83;;;192.43;;
30068;SDS011;16894;49.456;10.644;2023-07-22T05:37:23;182.93;;;172.00;;
30068;SDS011;16894;49.456;10.644;2023-07-22T05:42:15;154.13;;;144.93;;
30068;SDS011;16894;49.456;10.644;2023-07-22T05:47:07;151.05;;;141.85;;
30068;SDS011;16894;49.456;10.644;2023-07-22T05:49:33;206.80;;;194.47;;
30068;SDS011;16894;49.456;10.644;2023-07-22T05:51:58;219.17;;;205.73;;
30068;SDS011;16894;49.456;10.644;2023-07-22T05:54:24;237.93;;;223.80;;
30068;SDS011;16894;49.456;10.644;2023-07-22T05:56:49;239.67;;;225.00;;
30068;SDS011;16894;49.456;10.644;2023-07-22T05:59:15;256.70;;;241.30;;
30068;SDS011;16894;49.456;10.644;2023-07-22T06:01:41;234.80;;;220.73;;
30068;SDS011;16894;49.456;10.644;2023-07-22T06:04:06;208.87;;;195.93;;
30068;SDS011;16894;49.456;10.644;2023-07-22T06:06:32;203.77;;;191.53;;
30068;SDS011;16894;49.456;10.644;2023-07-22T06:08:58;186.07;;;174.65;;
30068;SDS011;16894;49.456;10.644;2023-07-22T06:11:24;206.10;;;193.63;;
30068;SDS011;16894;49.456;10.644;2023-07-22T06:13:49;230.23;;;214.80;;
30068;SDS011;16894;49.456;10.644;2023-07-22T06:16:15;204.40;;;192.02;;
30068;SDS011;16894;49.456;10.644;2023-07-22T06:18:41;199.87;;;187.90;;
30068;SDS011;16894;49.456;10.644;2023-07-22T06:21:06;205.10;;;192.90;;
30068;SDS011;16894;49.456;10.644;2023-07-22T06:23:32;190.50;;;178.60;;
30068;SDS011;16894;49.456;10.644;2023-07-22T06:25:57;182.37;;;171.37;;
30068;SDS011;16894;49.456;10.644;2023-07-22T06:28:23;167.93;;;157.67;;
30068;SDS011;16894;49.456;10.644;2023-07-22T06:30:49;168.27;;;158.17;;
30068;SDS011;16894;49.456;10.644;2023-07-22T06:33:14;183.40;;;172.27;;
30068;SDS011;16894;49.456;10.644;2023-07-22T06:38:07;190.35;;;178.90;;
30068;SDS011;16894;49.456;10.644;2023-07-22T06:40:33;160.13;;;150.13;;
30068;SDS011;16894;49.456;10.644;2023-07-22T06:42:58;147.20;;;138.30;;
30068;SDS011;16894;49.456;10.644;2023-07-22T06:45:24;199.13;;;187.17;;
30068;SDS011;16894;49.456;10.644;2023-07-22T06:47:49;232.65;;;217.98;;
30068;SDS011;16894;49.456;10.644;2023-07-22T06:50:15;251.97;;;236.67;;
30068;SDS011;16894;49.456;10.644;2023-07-22T06:52:41;242.00;;;227.37;;
30068;SDS011;16894;49.456;10.644;2023-07-22T06:55:06;209.10;;;196.47;;
30068;SDS011;16894;49.456;10.644;2023-07-22T06:57:32;225.60;;;212.07;;
30068;SDS011;16894;49.456;10.644;2023-07-22T06:59:58;232.60;;;218.48;;
30068;SDS011;16894;49.456;10.644;2023-07-22T07:02:24;238.80;;;224.57;;
30068;SDS011;16894;49.456;10.644;2023-07-22T07:04:50;238.45;;;224.15;;
30068;SDS011;16894;49.456;10.644;2023-07-22T07:07:16;242.63;;;228.07;;
30068;SDS011;16894;49.456;10.644;2023-07-22T07:09:41;250.68;;;235.68;;
30068;SDS011;16894;49.456;10.644;2023-07-22T07:12:07;239.80;;;225.23;;
30068;SDS011;16894;49.456;10.644;2023-07-22T07:14:34;239.77;;;225.35;;
30068;SDS011;16894;49.456;10.644;2023-07-22T07:17:00;243.85;;;228.85;;
30068;SDS011;16894;49.456;10.644;2023-07-22T07:21:52;244.68;;;229.63;;
30068;SDS011;16894;49.456;10.644;2023-07-22T07:24:18;266.10;;;249.53;;
30068;SDS011;16894;49.456;10.644;2023-07-22T07:26:44;261.02;;;244.93;;
30068;SDS011;16894;49.456;10.644;2023-07-22T07:29:10;255.20;;;239.70;;
30068;SDS011;16894;49.456;10.644;2023-07-22T07:31:36;308.45;;;289.48;;
30068;SDS011;16894;49.456;10.644;2023-07-22T07:34:03;334.55;;;313.85;;
30068;SDS011;16894;49.456;10.644;2023-07-22T07:36:29;365.70;;;342.55;;
30068;SDS011;16894;49.456;10.644;2023-07-22T07:38:54;318.38;;;298.67;;
30068;SDS011;16894;49.456;10.644;2023-07-22T07:41:20;288.70;;;271.13;;
30068;SDS011;16894;49.456;10.644;2023-07-22T07:43:46;267.55;;;250.82;;
30068;SDS011;16894;49.456;10.644;2023-07-22T07:46:19;276.38;;;259.40;;
30068;SDS011;16894;49.456;10.644;2023-07-22T07:48:48;292.30;;;274.38;;
30068;SDS011;16894;49.456;10.644;2023-07-22T07:51:14;294.02;;;275.85;;
30068;SDS011;16894;49.456;10.644;2023-07-22T07:56:08;291.83;;;273.13;;
30068;SDS011;16894;49.456;10.644;2023-07-22T07:58:35;935.15;;;853.85;;
30068;SDS011;16894;49.456;10.644;2023-07-22T08:03:26;1003.88;;;917.47;;
30068;SDS011;16894;49.456;10.644;2023-07-22T08:05:52;1077.77;;;976.83;;
30068;SDS011;16894;49.456;10.644;2023-07-22T08:08:18;827.17;;;762.85;;
30068;SDS011;16894;49.456;10.644;2023-07-22T08:10:43;737.10;;;682.47;;
30068;SDS011;16894;49.456;10.644;2023-07-22T08:13:09;892.03;;;821.35;;
30068;SDS011;16894;49.456;10.644;2023-07-22T08:15:35;816.70;;;753.83;;
30068;SDS011;16894;49.456;10.644;2023-07-22T08:18:01;1079.75;;;978.95;;
30068;SDS011;16894;49.456;10.644;2023-07-22T08:20:29;1364.38;;;999.90;;
30068;SDS011;16894;49.456;10.644;2023-07-22T08:22:55;1424.30;;;999.90;;
30068;SDS011;16894;49.456;10.644;2023-07-22T08:25:21;1480.38;;;999.90;;
30068;SDS011;16894;49.456;10.644;2023-07-22T08:27:47;1646.97;;;999.90;;
30068;SDS011;16894;49.456;10.644;2023-07-22T08:30:12;1845.20;;;999.90;;
30068;SDS011;16894;49.456;10.644;2023-07-22T08:32:38;1999.90;;;999.90;;
30068;SDS011;16894;49.456;10.644;2023-07-22T08:35:04;1999.90;;;999.90;;
30068;SDS011;16894;49.456;10.644;2023-07-22T08:37:31;1999.90;;;999.90;;
30068;SDS011;16894;49.456;10.644;2023-07-22T08:39:56;1999.90;;;999.90;;
30068;SDS011;16894;49.456;10.644;2023-07-22T08:42:22;1999.90;;;999.90;;
30068;SDS011;16894;49.456;10.644;2023-07-22T08:44:50;1999.90;;;999.90;;
30068;SDS011;16894;49.456;10.644;2023-07-22T08:47:21;1999.90;;;999.90;;
30068;SDS011;16894;49.456;10.644;2023-07-22T08:49:50;1999.90;;;999.90;;
30068;SDS011;16894;49.456;10.644;2023-07-22T08:52:20;1670.05;;;816.85;;
30068;SDS011;16894;49.456;10.644;2023-07-22T08:54:47;1999.90;;;999.90;;
30068;SDS011;16894;49.456;10.644;2023-07-22T08:57:14;1999.90;;;999.90;;
30068;SDS011;16894;49.456;10.644;2023-07-22T08:59:41;1999.90;;;999.90;;
30068;SDS011;16894;49.456;10.644;2023-07-22T09:02:10;1999.90;;;999.90;;
30068;SDS011;16894;49.456;10.644;2023-07-22T09:04:39;1999.90;;;999.90;;
30068;SDS011;16894;49.456;10.644;2023-07-22T09:07:09;1999.90;;;999.90;;
30068;SDS011;16894;49.456;10.644;2023-07-22T09:09:36;1999.90;;;999.90;;
30068;SDS011;16894;49.456;10.644;2023-07-22T09:14:29;1999.90;;;999.90;;
30068;SDS011;16894;49.456;10.644;2023-07-22T09:16:57;1999.90;;;999.90;;
30068;SDS011;16894;49.456;10.644;2023-07-22T09:19:23;1999.90;;;999.90;;
30068;SDS011;16894;49.456;10.644;2023-07-22T09:21:49;1999.90;;;999.90;;
30068;SDS011;16894;49.456;10.644;2023-07-22T09:24:21;1999.90;;;999.90;;
30068;SDS011;16894;49.456;10.644;2023-07-22T09:26:49;1999.90;;;999.90;;
30068;SDS011;16894;49.456;10.644;2023-07-22T09:29:15;1999.90;;;999.90;;
30068;SDS011;16894;49.456;10.644;2023-07-22T09:31:51;1999.90;;;999.90;;
30068;SDS011;16894;49.456;10.644;2023-07-22T09:34:18;1999.90;;;999.90;;
30068;SDS011;16894;49.456;10.644;2023-07-22T09:36:54;1999.90;;;999.90;;
30068;SDS011;16894;49.456;10.644;2023-07-22T09:39:21;1999.90;;;999.90;;
30068;SDS011;16894;49.456;10.644;2023-07-22T09:41:47;1999.90;;;999.90;;
30068;SDS011;16894;49.456;10.644;2023-07-22T09:46:39;1999.90;;;999.90;;
30068;SDS011;16894;49.456;10.644;2023-07-22T09:49:07;1999.90;;;999.90;;
30068;SDS011;16894;49.456;10.644;2023-07-22T09:51:35;1999.90;;;999.90;;
30068;SDS011;16894;49.456;10.644;2023-07-22T09:54:02;1999.90;;;999.90;;
30068;SDS011;16894;49.456;10.644;2023-07-22T09:56:29;1999.90;;;999.90;;
30068;SDS011;16894;49.456;10.644;2023-07-22T09:58:55;1999.90;;;999.90;;
30068;SDS011;16894;49.456;10.644;2023-07-22T10:01:28;1999.90;;;999.90;;
30068;SDS011;16894;49.456;10.644;2023-07-22T10:03:55;1999.90;;;999.90;;
30068;SDS011;16894;49.456;10.644;2023-07-22T10:06:26;1999.90;;;999.90;;
30068;SDS011;16894;49.456;10.644;2023-07-22T10:08:53;1999.90;;;999.90;;
30068;SDS011;16894;49.456;10.644;2023-07-22T10:11:26;1999.90;;;999.90;;
30068;SDS011;16894;49.456;10.644;2023-07-22T10:13:53;1999.90;;;999.90;;
30068;SDS011;16894;49.456;10.644;2023-07-22T10:16:20;1999.90;;;999.90;;
30068;SDS011;16894;49.456;10.644;2023-07-22T10:18:48;1999.90;;;999.90;;
30068;SDS011;16894;49.456;10.644;2023-07-22T10:21:14;1999.90;;;999.90;;
30068;SDS011;16894;49.456;10.644;2023-07-22T10:26:07;1999.90;;;999.90;;
30068;SDS011;16894;49.456;10.644;2023-07-22T10:28:35;1999.90;;;999.90;;
30068;SDS011;16894;49.456;10.644;2023-07-22T10:31:02;1999.90;;;999.90;;
30068;SDS011;16894;49.456;10.644;2023-07-22T10:33:28;1999.90;;;999.90;;
30068;SDS011;16894;49.456;10.644;2023-07-22T10:36:01;1999.90;;;999.90;;
30068;SDS011;16894;49.456;10.644;2023-07-22T10:38:31;1999.90;;;999.90;;
30068;SDS011;16894;49.456;10.644;2023-07-22T10:40:57;1999.90;;;999.90;;
30068;SDS011;16894;49.456;10.644;2023-07-22T10:43:30;1999.90;;;999.90;;
30068;SDS011;16894;49.456;10.644;2023-07-22T10:46:00;1999.90;;;999.90;;
30068;SDS011;16894;49.456;10.644;2023-07-22T10:48:40;1999.90;;;999.90;;
30068;SDS011;16894;49.456;10.644;2023-07-22T10:51:13;1999.90;;;999.90;;
30068;SDS011;16894;49.456;10.644;2023-07-22T10:53:43;1999.90;;;999.90;;
30068;SDS011;16894;49.456;10.644;2023-07-22T10:56:23;1999.90;;;999.90;;
30068;SDS011;16894;49.456;10.644;2023-07-22T11:04:05;1999.90;;;999.90;;
30068;SDS011;16894;49.456;10.644;2023-07-22T11:06:58;1999.90;;;999.90;;
30068;SDS011;16894;49.456;10.644;2023-07-22T11:14:33;1999.90;;;999.90;;
30068;SDS011;16894;49.456;10.644;2023-07-22T11:17:01;1999.90;;;999.90;;
30068;SDS011;16894;49.456;10.644;2023-07-22T11:19:31;1999.90;;;999.90;;
30068;SDS011;16894;49.456;10.644;2023-07-22T11:21:58;1999.90;;;999.90;;
30068;SDS011;16894;49.456;10.644;2023-07-22T11:24:24;1999.90;;;999.90;;
30068;SDS011;16894;49.456;10.644;2023-07-22T11:26:51;1999.90;;;999.90;;
30068;SDS011;16894;49.456;10.644;2023-07-22T11:29:17;1999.90;;;999.90;;
30068;SDS011;16894;49.456;10.644;2023-07-22T11:31:44;1999.90;;;999.90;;
30068;SDS011;16894;49.456;10.644;2023-07-22T11:34:11;1999.90;;;999.90;;
30068;SDS011;16894;49.456;10.644;2023-07-22T11:36:38;1999.90;;;999.90;;
30068;SDS011;16894;49.456;10.644;2023-07-22T11:41:34;1999.90;;;999.90;;
30068;SDS011;16894;49.456;10.644;2023-07-22T11:44:01;1999.90;;;999.90;;
30068;SDS011;16894;49.456;10.644;2023-07-22T11:46:33;1999.90;;;999.90;;
30068;SDS011;16894;49.456;10.644;2023-07-22T11:49:00;1999.90;;;999.90;;
30068;SDS011;16894;49.456;10.644;2023-07-22T11:51:25;1999.90;;;999.90;;
30068;SDS011;16894;49.456;10.644;2023-07-22T11:53:52;1999.90;;;999.90;;
30068;SDS011;16894;49.456;10.644;2023-07-22T11:56:23;1999.90;;;999.90;;
30068;SDS011;16894;49.456;10.644;2023-07-22T11:58:50;1999.90;;;999.90;;
30068;SDS011;16894;49.456;10.644;2023-07-22T12:01:17;1999.90;;;999.90;;
30068;SDS011;16894;49.456;10.644;2023-07-22T12:06:08;1999.90;;;999.90;;
30068;SDS011;16894;49.456;10.644;2023-07-22T12:08:34;1999.90;;;999.90;;
30068;SDS011;16894;49.456;10.644;2023-07-22T12:11:01;1999.90;;;999.90;;
30068;SDS011;16894;49.456;10.644;2023-07-22T12:13:27;1999.90;;;999.90;;
30068;SDS011;16894;49.456;10.644;2023-07-22T12:16:03;1999.90;;;999.90;;
30068;SDS011;16894;49.456;10.644;2023-07-22T12:18:42;1999.90;;;999.90;;
30068;SDS011;16894;49.456;10.644;2023-07-22T12:21:12;1999.90;;;999.90;;
30068;SDS011;16894;49.456;10.644;2023-07-22T12:23:38;1999.90;;;999.90;;
30068;SDS011;16894;49.456;10.644;2023-07-22T12:28:30;1999.90;;;999.90;;
30068;SDS011;16894;49.456;10.644;2023-07-22T12:30:56;1999.90;;;999.90;;
30068;SDS011;16894;49.456;10.644;2023-07-22T12:33:23;1999.90;;;999.90;;
30068;SDS011;16894;49.456;10.644;2023-07-22T12:35:53;1999.90;;;999.90;;
30068;SDS011;16894;49.456;10.644;2023-07-22T12:38:19;1999.90;;;999.90;;
30068;SDS011;16894;49.456;10.644;2023-07-22T12:43:11;1999.90;;;999.90;;
30068;SDS011;16894;49.456;10.644;2023-07-22T12:45:37;1999.90;;;999.90;;
30068;SDS011;16894;49.456;10.644;2023-07-22T12:48:02;1999.90;;;999.90;;
30068;SDS011;16894;49.456;10.644;2023-07-22T12:50:30;1999.90;;;999.90;;
30068;SDS011;16894;49.456;10.644;2023-07-22T12:52:57;1999.90;;;999.90;;
30068;SDS011;16894;49.456;10.644;2023-07-22T12:55:23;1999.90;;;999.90;;
30068;SDS011;16894;49.456;10.644;2023-07-22T13:00:14;1999.90;;;999.90;;
30068;SDS011;16894;49.456;10.644;2023-07-22T13:02:40;1999.90;;;999.90;;
30068;SDS011;16894;49.456;10.644;2023-07-22T13:07:31;1999.90;;;999.90;;
30068;SDS011;16894;49.456;10.644;2023-07-22T13:12:25;1999.90;;;999.90;;
30068;SDS011;16894;49.456;10.644;2023-07-22T13:14:51;1999.90;;;999.90;;
30068;SDS011;16894;49.456;10.644;2023-07-22T13:17:17;1999.90;;;999.90;;
30068;SDS011;16894;49.456;10.644;2023-07-22T13:19:42;1999.90;;;999.90;;
30068;SDS011;16894;49.456;10.644;2023-07-22T13:22:08;1999.90;;;999.90;;
30068;SDS011;16894;49.456;10.644;2023-07-22T13:26:59;1999.90;;;999.90;;
30068;SDS011;16894;49.456;10.644;2023-07-22T13:31:50;1999.90;;;999.90;;
30068;SDS011;16894;49.456;10.644;2023-07-22T13:36:41;1999.90;;;999.90;;
30068;SDS011;16894;49.456;10.644;2023-07-22T13:39:07;1999.90;;;999.90;;
30068;SDS011;16894;49.456;10.644;2023-07-22T13:41:33;1999.90;;;999.90;;
30068;SDS011;16894;49.456;10.644;2023-07-22T13:43:58;1999.90;;;999.90;;
30068;SDS011;16894;49.456;10.644;2023-07-22T13:46:24;1999.90;;;999.90;;
30068;SDS011;16894;49.456;10.644;2023-07-22T13:48:49;1999.90;;;999.90;;
30068;SDS011;16894;49.456;10.644;2023-07-22T13:51:15;1999.90;;;999.90;;
30068;SDS011;16894;49.456;10.644;2023-07-22T13:53:41;1999.90;;;999.90;;
30068;SDS011;16894;49.456;10.644;2023-07-22T13:56:06;1999.90;;;999.90;;
30068;SDS011;16894;49.456;10.644;2023-07-22T14:00:57;1999.90;;;999.90;;
30068;SDS011;16894;49.456;10.644;2023-07-22T14:05:49;1999.90;;;999.90;;
30068;SDS011;16894;49.456;10.644;2023-07-22T14:08:15;1999.90;;;999.90;;
30068;SDS011;16894;49.456;10.644;2023-07-22T14:13:06;1999.90;;;999.90;;
30068;SDS011;16894;49.456;10.644;2023-07-22T14:15:31;1999.90;;;999.90;;
30068;SDS011;16894;49.456;10.644;2023-07-22T14:17:57;1999.90;;;999.90;;
30068;SDS011;16894;49.456;10.644;2023-07-22T14:20:23;1999.90;;;999.90;;
30068;SDS011;16894;49.456;10.644;2023-07-22T14:25:15;1999.90;;;999.90;;
30068;SDS011;16894;49.456;10.644;2023-07-22T14:27:41;1999.90;;;999.90;;
30068;SDS011;16894;49.456;10.644;2023-07-22T14:30:07;1999.90;;;999.90;;
30068;SDS011;16894;49.456;10.644;2023-07-22T14:32:34;1999.90;;;999.90;;
30068;SDS011;16894;49.456;10.644;2023-07-22T14:34:59;1999.90;;;999.90;;
30068;SDS011;16894;49.456;10.644;2023-07-22T14:37:25;1999.90;;;999.90;;
30068;SDS011;16894;49.456;10.644;2023-07-22T14:39:51;1999.90;;;999.90;;
30068;SDS011;16894;49.456;10.644;2023-07-22T14:42:16;1999.90;;;999.90;;
30068;SDS011;16894;49.456;10.644;2023-07-22T14:44:42;1999.90;;;999.90;;